createdAt,value
2022-08-02T00:01:32.877Z,27.00
2022-08-02T00:04:02.521Z,27.00
2022-08-02T00:06:32.360Z,26.90
2022-08-02T00:09:02.574Z,26.90
2022-08-02T00:11:32.259Z,26.80
2022-08-02T00:14:01.947Z,26.70
2022-08-02T00:16:37.703Z,26.60
2022-08-02T00:19:03.373Z,26.70
2022-08-02T00:21:33.062Z,26.70
2022-08-02T00:24:29.261Z,26.60
2022-08-02T00:26:33.730Z,26.50
2022-08-02T00:29:03.452Z,26.60
2022-08-02T00:31:33.107Z,26.50
2022-08-02T00:34:27.439Z,26.40
2022-08-02T00:36:33.863Z,26.20
2022-08-02T00:39:03.524Z,26.10
2022-08-02T00:41:33.133Z,26.00
2022-08-02T00:44:02.647Z,26.00
2022-08-02T00:46:32.293Z,26.10
2022-08-02T00:49:02.260Z,25.80
2022-08-02T00:51:31.757Z,26.00
2022-08-02T00:54:01.370Z,26.10
2022-08-02T00:56:30.946Z,26.00
2022-08-02T00:59:00.518Z,26.00
2022-08-02T01:01:56.712Z,26.00
2022-08-02T01:04:13.206Z,25.90
2022-08-02T01:06:44.065Z,25.90
2022-08-02T01:09:13.689Z,25.80
2022-08-02T01:11:43.949Z,25.40
2022-08-02T01:14:16.044Z,25.50
2022-08-02T01:16:51.408Z,25.50
2022-08-02T01:19:26.671Z,25.60
2022-08-02T01:22:15.023Z,25.70
2022-08-02T01:25:24.180Z,25.60
2022-08-02T01:28:11.283Z,25.30
2022-08-02T01:30:43.999Z,25.40
2022-08-02T01:33:17.151Z,25.40
2022-08-02T01:35:51.278Z,25.50
2022-08-02T01:38:27.137Z,25.50
2022-08-02T01:40:59.756Z,25.30
2022-08-02T01:43:30.738Z,25.20
2022-08-02T01:46:02.247Z,25.20
2022-08-02T01:48:34.900Z,25.30
2022-08-02T01:51:05.911Z,25.40
2022-08-02T01:53:37.780Z,25.20
2022-08-02T01:56:09.496Z,25.20
2022-08-02T01:58:40.595Z,25.20
2022-08-02T02:01:14.645Z,25.20
2022-08-02T02:03:46.561Z,25.00
2022-08-02T02:06:17.103Z,25.00
2022-08-02T02:08:48.364Z,25.20
2022-08-02T02:12:08.666Z,25.00
2022-08-02T02:13:50.900Z,25.10
2022-08-02T02:16:22.917Z,25.10
2022-08-02T02:18:55.191Z,25.10
2022-08-02T02:21:24.899Z,24.90
2022-08-02T02:25:46.527Z,24.60
2022-08-02T02:28:30.481Z,24.70
2022-08-02T02:31:06.006Z,24.60
2022-08-02T02:33:38.442Z,24.40
2022-08-02T02:36:11.128Z,24.50
2022-08-02T02:38:41.874Z,24.50
2022-08-02T02:41:12.116Z,24.50
2022-08-02T02:43:44.046Z,24.40
2022-08-02T02:46:15.842Z,24.40
2022-08-02T02:48:45.924Z,24.50
2022-08-02T02:51:17.031Z,24.50
2022-08-02T02:54:29.931Z,24.50
2022-08-02T02:56:22.315Z,24.40
2022-08-02T02:58:54.060Z,24.50
2022-08-02T03:01:55.543Z,24.50
2022-08-02T03:04:07.709Z,24.60
2022-08-02T03:06:39.623Z,24.60
2022-08-02T03:09:11.579Z,24.50
2022-08-02T03:11:42.679Z,24.20
2022-08-02T03:14:13.562Z,24.30
2022-08-02T03:16:51.613Z,24.30
2022-08-02T03:19:22.508Z,24.40
2022-08-02T03:21:57.160Z,24.40
2022-08-02T03:24:28.071Z,24.30
2022-08-02T03:26:55.196Z,23.90
2022-08-02T03:29:24.730Z,24.10
2022-08-02T03:31:55.318Z,24.10
2022-08-02T03:34:25.984Z,23.70
2022-08-02T03:36:58.270Z,24.00
2022-08-02T03:39:28.706Z,24.20
2022-08-02T03:41:58.839Z,24.00
2022-08-02T03:44:28.642Z,24.00
2022-08-02T03:46:59.046Z,23.70
2022-08-02T03:49:30.835Z,23.90
2022-08-02T03:52:02.086Z,23.90
2022-08-02T03:54:34.834Z,23.60
2022-08-02T03:57:02.927Z,23.40
2022-08-02T03:59:35.432Z,23.60
2022-08-02T04:02:06.557Z,23.80
2022-08-02T04:04:36.251Z,23.70
2022-08-02T04:07:07.590Z,23.70
2022-08-02T04:09:37.521Z,23.40
2022-08-02T04:12:07.334Z,23.30
2022-08-02T04:14:37.091Z,23.40
2022-08-02T04:17:09.607Z,23.30
2022-08-02T04:20:06.209Z,23.30
2022-08-02T04:22:44.327Z,23.30
2022-08-02T04:25:17.310Z,23.40
2022-08-02T04:28:15.211Z,23.30
2022-08-02T04:30:19.475Z,23.30
2022-08-02T04:32:48.975Z,23.40
2022-08-02T04:35:20.246Z,23.40
2022-08-02T04:38:08.865Z,23.40
2022-08-02T04:40:21.863Z,23.50
2022-08-02T04:42:51.302Z,23.20
2022-08-02T04:45:24.324Z,23.00
2022-08-02T04:48:03.835Z,22.90
2022-08-02T04:50:25.206Z,23.20
2022-08-02T04:52:54.722Z,23.30
2022-08-02T04:55:25.989Z,23.30
2022-08-02T04:57:56.397Z,23.20
2022-08-02T05:00:27.499Z,23.20
2022-08-02T05:03:01.504Z,23.20
2022-08-02T05:05:31.068Z,23.00
2022-08-02T05:08:01.182Z,23.20
2022-08-02T05:10:31.136Z,23.00
2022-08-02T05:13:00.786Z,22.90
2022-08-02T05:15:33.261Z,22.90
2022-08-02T05:18:01.789Z,22.80
2022-08-02T05:20:31.568Z,22.70
2022-08-02T05:23:01.001Z,22.70
2022-08-02T05:25:30.561Z,22.70
2022-08-02T05:28:00.160Z,22.90
2022-08-02T05:30:29.683Z,22.80
2022-08-02T05:32:59.233Z,22.70
2022-08-02T05:35:28.692Z,22.70
2022-08-02T05:37:58.225Z,22.70
2022-08-02T05:40:27.753Z,22.70
2022-08-02T05:42:57.926Z,22.70
2022-08-02T05:45:27.514Z,22.70
2022-08-02T05:47:56.949Z,22.60
2022-08-02T05:50:26.590Z,22.70
2022-08-02T05:53:09.395Z,22.70
2022-08-02T05:55:42.030Z,23.00
2022-08-02T05:58:30.026Z,22.80
2022-08-02T06:01:02.409Z,22.70
2022-08-02T06:03:37.728Z,22.90
2022-08-02T06:06:17.941Z,23.00
2022-08-02T06:08:50.770Z,23.00
2022-08-02T06:11:25.098Z,23.20
2022-08-02T06:13:55.568Z,23.20
2022-08-02T06:16:32.180Z,23.30
2022-08-02T06:19:01.056Z,23.20
2022-08-02T06:22:31.811Z,23.20
2022-08-02T06:24:03.385Z,23.20
2022-08-02T06:26:33.975Z,23.30
2022-08-02T06:29:04.386Z,23.50
2022-08-02T06:31:33.909Z,23.40
2022-08-02T06:34:03.505Z,23.50
2022-08-02T06:36:50.388Z,23.60
2022-08-02T06:39:23.866Z,23.90
2022-08-02T06:41:55.298Z,24.00
2022-08-02T06:44:47.962Z,24.00
2022-08-02T06:47:11.350Z,24.30
2022-08-02T06:49:52.485Z,24.70
2022-08-02T06:51:59.281Z,25.00
2022-08-02T06:54:28.925Z,25.70
2022-08-02T06:56:58.370Z,26.10
2022-08-02T06:59:27.867Z,26.50
2022-08-02T07:01:59.162Z,26.90
2022-08-02T07:04:28.835Z,26.90
2022-08-02T07:06:58.547Z,27.00
2022-08-02T07:09:28.114Z,27.50
2022-08-02T07:11:57.723Z,27.40
2022-08-02T07:14:27.143Z,27.70
2022-08-02T07:16:56.586Z,27.90
2022-08-02T07:19:37.505Z,28.20
2022-08-02T07:22:00.564Z,29.00
2022-08-02T07:24:30.088Z,28.80
2022-08-02T07:27:11.312Z,29.30
2022-08-02T07:29:33.617Z,29.30
2022-08-02T07:32:03.002Z,29.30
2022-08-02T07:34:32.469Z,29.70
2022-08-02T07:37:02.086Z,29.70
2022-08-02T07:39:32.178Z,30.00
2022-08-02T07:42:03.310Z,29.70
2022-08-02T07:44:34.949Z,30.20
2022-08-02T07:47:05.409Z,30.30
2022-08-02T07:49:35.215Z,29.90
2022-08-02T07:52:05.363Z,30.40
2022-08-02T07:54:34.963Z,30.30
2022-08-02T07:57:05.353Z,30.40
2022-08-02T07:59:34.881Z,30.00
2022-08-02T08:02:04.566Z,30.40
2022-08-02T08:04:34.251Z,30.80
2022-08-02T08:07:05.420Z,31.40
2022-08-02T08:09:37.140Z,31.10
2022-08-02T08:12:07.862Z,30.90
2022-08-02T08:14:37.382Z,31.10
2022-08-02T08:17:08.650Z,31.50
2022-08-02T08:19:50.228Z,31.90
2022-08-02T08:22:09.579Z,32.10
2022-08-02T08:24:39.394Z,32.50
2022-08-02T08:27:10.603Z,32.30
2022-08-02T08:29:40.082Z,31.10
2022-08-02T08:32:14.103Z,31.60
2022-08-02T08:34:40.759Z,31.70
2022-08-02T08:37:16.405Z,31.40
2022-08-02T08:39:56.963Z,32.30
2022-08-02T08:42:13.301Z,32.70
2022-08-02T08:44:44.561Z,32.80
2022-08-02T08:47:14.157Z,33.00
2022-08-02T08:49:52.968Z,33.20
2022-08-02T08:52:20.567Z,33.20
2022-08-02T08:54:51.219Z,32.90
2022-08-02T08:57:22.095Z,33.30
2022-08-02T08:59:52.294Z,33.50
2022-08-02T09:02:26.056Z,33.70
2022-08-02T09:04:54.567Z,33.60
2022-08-02T09:07:24.891Z,34.00
2022-08-02T09:09:54.635Z,33.10
2022-08-02T09:12:25.222Z,33.30
2022-08-02T09:14:55.258Z,33.90
2022-08-02T09:17:24.750Z,33.50
2022-08-02T09:20:08.888Z,34.30
2022-08-02T09:22:38.382Z,34.50
2022-08-02T09:25:11.005Z,34.10
2022-08-02T09:27:41.000Z,34.10
2022-08-02T09:30:14.271Z,34.70
2022-08-02T09:32:50.107Z,34.80
2022-08-02T09:36:07.326Z,34.50
2022-08-02T09:38:15.677Z,34.80
2022-08-02T09:40:45.406Z,35.30
2022-08-02T09:43:16.561Z,35.50
2022-08-02T09:45:46.156Z,35.30
2022-08-02T09:48:15.785Z,35.00
2022-08-02T09:50:46.763Z,35.40
2022-08-02T09:53:19.850Z,35.50
2022-08-02T09:55:52.403Z,35.30
2022-08-02T09:58:22.679Z,34.90
2022-08-02T10:00:59.313Z,35.10
2022-08-02T10:03:35.080Z,34.20
2022-08-02T10:06:02.226Z,35.20
2022-08-02T10:08:32.932Z,36.00
2022-08-02T10:11:03.937Z,35.50
2022-08-02T10:13:37.239Z,34.60
2022-08-02T10:16:07.135Z,34.20
2022-08-02T10:18:39.317Z,35.10
2022-08-02T10:21:17.063Z,36.10
2022-08-02T10:23:49.462Z,36.40
2022-08-02T10:26:21.090Z,36.20
2022-08-02T10:28:51.144Z,34.00
2022-08-02T10:31:23.717Z,35.00
2022-08-02T10:33:55.239Z,36.20
2022-08-02T10:36:27.444Z,36.50
2022-08-02T10:38:58.988Z,36.30
2022-08-02T10:41:46.491Z,35.80
2022-08-02T10:44:31.231Z,36.20
2022-08-02T10:47:26.678Z,37.10
2022-08-02T10:49:59.178Z,38.20
2022-08-02T10:52:30.782Z,37.90
2022-08-02T10:55:13.433Z,37.40
2022-08-02T10:57:48.695Z,37.70
2022-08-02T11:02:53.461Z,37.30
2022-08-02T11:05:42.971Z,37.50
2022-08-02T11:08:09.377Z,38.00
2022-08-02T11:10:42.058Z,37.70
2022-08-02T11:13:14.618Z,38.60
2022-08-02T11:16:03.618Z,39.00
2022-08-02T11:18:53.710Z,38.20
2022-08-02T11:21:28.770Z,38.60
2022-08-02T11:24:01.292Z,38.50
2022-08-02T11:26:33.943Z,36.60
2022-08-02T11:29:05.591Z,36.70
2022-08-02T11:31:45.982Z,38.20
2022-08-02T11:34:36.849Z,38.20
2022-08-02T11:36:53.150Z,39.10
2022-08-02T11:39:24.376Z,38.30
2022-08-02T11:41:59.882Z,38.70
2022-08-02T11:44:32.539Z,38.90
2022-08-02T11:47:04.220Z,38.70
2022-08-02T11:49:33.881Z,38.80
2022-08-02T11:52:06.716Z,39.10
2022-08-02T11:54:40.269Z,38.50
2022-08-02T11:57:21.860Z,36.90
2022-08-02T11:59:53.751Z,36.20
2022-08-02T12:02:24.317Z,36.90
2022-08-02T12:04:58.578Z,36.90
2022-08-02T12:07:37.312Z,37.70
2022-08-02T12:10:16.880Z,38.40
2022-08-02T12:12:49.983Z,38.70
2022-08-02T12:15:44.650Z,39.60
2022-08-02T12:18:38.460Z,39.50
2022-08-02T12:21:25.094Z,39.10
2022-08-02T12:23:59.610Z,38.60
2022-08-02T12:26:26.778Z,39.50
2022-08-02T12:29:01.681Z,37.10
2022-08-02T12:31:57.152Z,36.50
2022-08-02T12:34:20.857Z,37.70
2022-08-02T12:37:04.174Z,37.50
2022-08-02T12:39:42.882Z,38.00
2022-08-02T12:42:15.136Z,38.10
2022-08-02T12:44:54.021Z,39.00
2022-08-02T12:47:23.903Z,39.20
2022-08-02T12:50:18.097Z,39.20
2022-08-02T12:52:48.692Z,39.40
2022-08-02T12:56:02.158Z,39.80
2022-08-02T12:58:01.621Z,40.20
2022-08-02T13:00:34.471Z,39.40
2022-08-02T13:03:09.757Z,38.60
2022-08-02T13:05:56.937Z,38.50
2022-08-02T13:08:08.466Z,37.10
2022-08-02T13:10:38.140Z,36.60
2022-08-02T13:13:07.731Z,35.80
2022-08-02T13:15:49.818Z,37.80
2022-08-02T13:18:10.656Z,38.50
2022-08-02T13:20:45.576Z,39.40
2022-08-02T13:23:21.186Z,40.10
2022-08-02T13:25:42.880Z,38.90
2022-08-02T13:28:12.767Z,38.90
2022-08-02T13:30:42.295Z,37.60
2022-08-02T13:33:11.859Z,38.50
2022-08-02T13:35:41.442Z,39.20
2022-08-02T13:38:10.973Z,39.50
2022-08-02T13:41:05.434Z,39.00
2022-08-02T13:43:52.659Z,39.00
2022-08-02T13:46:01.822Z,38.50
2022-08-02T13:48:31.618Z,38.60
2022-08-02T13:51:01.311Z,39.10
2022-08-02T13:53:30.884Z,39.50
2022-08-02T13:56:01.327Z,39.70
2022-08-02T13:58:30.867Z,38.40
2022-08-02T14:01:01.147Z,38.50
2022-08-02T14:04:08.568Z,39.10
2022-08-02T14:06:02.591Z,39.30
2022-08-02T14:08:32.158Z,39.80
2022-08-02T14:11:01.776Z,39.90
2022-08-02T14:13:36.232Z,39.80
2022-08-02T14:16:02.487Z,38.10
2022-08-02T14:18:32.172Z,38.70
2022-08-02T14:21:01.696Z,39.00
2022-08-02T14:23:50.280Z,38.30
2022-08-02T14:26:05.541Z,38.30
2022-08-02T14:28:35.061Z,37.80
2022-08-02T14:31:05.260Z,37.20
2022-08-02T14:33:34.759Z,37.60
2022-08-02T14:36:04.477Z,38.10
2022-08-02T14:38:36.428Z,37.20
2022-08-02T14:41:06.286Z,37.60
2022-08-02T14:43:53.929Z,38.20
2022-08-02T14:46:24.116Z,38.80
2022-08-02T14:48:53.577Z,38.70
2022-08-02T14:51:23.370Z,39.00
2022-08-02T14:54:03.169Z,38.90
2022-08-02T14:56:24.186Z,38.30
2022-08-02T14:58:54.214Z,38.30
2022-08-02T15:01:26.090Z,38.70
2022-08-02T15:03:55.028Z,38.30
2022-08-02T15:06:24.723Z,38.40
2022-08-02T15:08:54.161Z,38.10
2022-08-02T15:11:23.911Z,38.40
2022-08-02T15:13:53.418Z,38.70
2022-08-02T15:16:36.974Z,39.10
2022-08-02T15:18:54.572Z,39.00
2022-08-02T15:21:41.318Z,38.50
2022-08-02T15:23:55.191Z,38.70
2022-08-02T15:26:24.734Z,38.60
2022-08-02T15:28:57.011Z,38.80
2022-08-02T15:31:33.045Z,38.30
2022-08-02T15:33:57.611Z,37.60
2022-08-02T15:36:27.243Z,37.70
2022-08-02T15:38:57.802Z,37.60
2022-08-02T15:41:27.605Z,37.50
2022-08-02T15:44:01.126Z,37.40
2022-08-02T15:46:32.234Z,37.30
2022-08-02T15:49:00.028Z,37.10
2022-08-02T15:51:29.801Z,37.00
2022-08-02T15:53:59.250Z,36.80
2022-08-02T15:56:28.894Z,37.20
2022-08-02T15:58:59.050Z,37.10
2022-08-02T16:01:32.125Z,36.60
2022-08-02T16:04:00.799Z,36.70
2022-08-02T16:06:30.252Z,36.40
2022-08-02T16:08:59.888Z,36.50
2022-08-02T16:11:30.511Z,36.70
2022-08-02T16:14:00.182Z,36.30
2022-08-02T16:16:34.577Z,36.10
2022-08-02T16:19:46.973Z,36.60
2022-08-02T16:21:38.131Z,36.50
2022-08-02T16:24:07.890Z,36.40
2022-08-02T16:26:37.599Z,36.40
2022-08-02T16:29:07.039Z,36.60
2022-08-02T16:31:41.749Z,36.60
2022-08-02T16:34:07.791Z,36.50
2022-08-02T16:36:37.905Z,36.10
2022-08-02T16:39:08.001Z,36.10
2022-08-02T16:41:50.276Z,36.00
2022-08-02T16:44:10.463Z,36.10
2022-08-02T16:46:40.086Z,36.20
2022-08-02T16:51:40.989Z,36.20
2022-08-02T16:54:10.499Z,36.20
2022-08-02T16:56:41.775Z,36.00
2022-08-02T16:59:13.030Z,35.90
2022-08-02T17:02:03.119Z,35.80
2022-08-02T17:04:13.851Z,35.70
2022-08-02T17:06:47.987Z,35.60
2022-08-02T17:11:46.831Z,35.80
2022-08-02T17:14:16.390Z,35.70
2022-08-02T17:16:46.136Z,35.60
2022-08-02T17:19:17.263Z,35.50
2022-08-02T17:21:47.148Z,35.50
2022-08-02T17:24:16.730Z,35.60
2022-08-02T17:26:48.230Z,35.50
2022-08-02T17:29:19.655Z,35.40
2022-08-02T17:32:05.529Z,35.30
2022-08-02T17:34:26.799Z,35.20
2022-08-02T17:36:52.155Z,35.20
2022-08-02T17:39:21.593Z,35.30
2022-08-02T17:41:52.514Z,35.30
2022-08-02T17:44:37.768Z,35.10
2022-08-02T17:46:53.577Z,35.20
2022-08-02T17:49:24.893Z,35.00
2022-08-02T17:52:49.280Z,35.00
2022-08-02T17:54:26.363Z,35.00
2022-08-02T17:56:55.894Z,34.90
2022-08-02T17:59:31.221Z,34.70
2022-08-02T18:02:03.721Z,34.70
2022-08-02T18:04:34.603Z,34.80
2022-08-02T18:07:09.727Z,34.70
2022-08-02T18:09:37.153Z,34.70
2022-08-02T18:12:08.438Z,34.70
2022-08-02T18:14:38.002Z,34.60
2022-08-02T18:17:09.243Z,34.50
2022-08-02T18:19:42.629Z,34.50
2022-08-02T18:22:10.012Z,34.40
2022-08-02T18:24:40.492Z,34.30
2022-08-02T18:27:09.423Z,34.30
2022-08-02T18:29:38.585Z,34.20
2022-08-02T18:32:11.748Z,34.20
2022-08-02T18:34:37.731Z,34.10
2022-08-02T18:39:38.562Z,34.00
2022-08-02T18:42:07.296Z,33.80
2022-08-02T18:44:36.063Z,33.80
2022-08-02T18:47:06.347Z,33.70
2022-08-02T18:49:46.156Z,33.60
2022-08-02T18:52:06.903Z,33.50
2022-08-02T18:54:35.911Z,33.50
2022-08-02T18:58:16.738Z,33.40
2022-08-02T18:59:37.577Z,33.30
2022-08-02T19:02:05.051Z,33.30
2022-08-02T19:04:34.305Z,33.20
2022-08-02T19:07:05.418Z,33.10
2022-08-02T19:09:33.653Z,33.10
2022-08-02T19:12:03.898Z,33.00
2022-08-02T19:14:32.560Z,33.00
2022-08-02T19:17:15.984Z,32.90
2022-08-02T19:19:31.570Z,32.80
2022-08-02T19:22:17.646Z,32.70
2022-08-02T19:24:32.351Z,32.60
2022-08-02T19:29:48.321Z,32.40
2022-08-02T19:32:03.747Z,32.30
2022-08-02T19:34:33.167Z,32.20
2022-08-02T19:37:01.854Z,32.20
2022-08-02T19:39:39.076Z,32.00
2022-08-02T19:42:03.313Z,32.00
2022-08-02T19:44:32.910Z,31.90
2022-08-02T19:47:01.968Z,31.90
2022-08-02T19:49:39.218Z,31.80
2022-08-02T19:52:02.719Z,31.80
2022-08-02T19:54:54.589Z,31.70
2022-08-02T19:57:04.450Z,31.60
2022-08-02T19:59:36.222Z,31.60
2022-08-02T20:02:05.241Z,31.50
2022-08-02T20:04:34.060Z,31.40
2022-08-02T20:07:04.706Z,31.40
2022-08-02T20:09:47.048Z,31.30
2022-08-02T20:12:04.173Z,31.20
2022-08-02T20:14:32.985Z,31.30
2022-08-02T20:17:04.441Z,31.20
2022-08-02T20:19:34.325Z,31.10
2022-08-02T20:22:04.117Z,31.10
2022-08-02T20:24:32.688Z,31.10
2022-08-02T20:27:02.956Z,30.90
2022-08-02T20:29:43.245Z,30.90
2022-08-02T20:32:02.174Z,30.80
2022-08-02T20:34:30.995Z,30.80
2022-08-02T20:36:59.693Z,30.80
2022-08-02T20:39:43.064Z,30.70
2022-08-02T20:42:03.391Z,30.60
2022-08-02T20:44:32.320Z,30.60
2022-08-02T20:47:01.443Z,30.60
2022-08-02T20:49:40.694Z,30.50
2022-08-02T20:52:02.065Z,30.50
2022-08-02T20:54:30.643Z,30.40
2022-08-02T20:56:59.344Z,30.40
2022-08-02T20:59:29.588Z,30.20
2022-08-02T21:01:58.745Z,30.20
2022-08-02T21:04:27.378Z,29.50
2022-08-02T21:06:58.710Z,29.00
2022-08-02T21:09:52.605Z,29.30
2022-08-02T21:11:58.586Z,29.60
2022-08-02T21:14:27.409Z,29.80
2022-08-02T21:16:55.961Z,29.80
2022-08-02T21:19:24.571Z,29.70
2022-08-02T21:21:54.829Z,29.80
2022-08-02T21:24:25.056Z,29.70
2022-08-02T21:26:55.474Z,29.70
2022-08-02T21:29:24.318Z,29.70
2022-08-02T21:31:53.059Z,29.60
2022-08-02T21:34:27.091Z,29.60
2022-08-02T21:36:51.871Z,29.50
2022-08-02T21:39:20.737Z,29.50
2022-08-02T21:41:49.772Z,29.40
2022-08-02T21:44:19.480Z,29.40
2022-08-02T21:46:49.222Z,29.30
2022-08-02T21:49:20.031Z,29.20
2022-08-02T21:51:50.454Z,29.20
2022-08-02T21:54:21.149Z,29.20
2022-08-02T21:56:53.583Z,29.10
2022-08-02T21:59:26.319Z,29.10
2022-08-02T22:01:54.129Z,29.00
2022-08-02T22:04:22.920Z,29.00
2022-08-02T22:06:51.505Z,29.00
2022-08-02T22:09:43.475Z,28.60
2022-08-02T22:11:50.394Z,28.30
2022-08-02T22:14:23.483Z,28.60
2022-08-02T22:16:50.925Z,28.70
2022-08-02T22:19:21.190Z,28.70
2022-08-02T22:21:55.528Z,28.70
2022-08-02T22:24:30.201Z,28.70
2022-08-02T22:26:51.889Z,28.60
2022-08-02T22:29:20.458Z,28.60
2022-08-02T22:31:49.171Z,28.60
2022-08-02T22:34:37.111Z,28.60
2022-08-02T22:36:48.219Z,28.50
2022-08-02T22:39:19.246Z,28.50
2022-08-02T22:42:06.148Z,28.50
2022-08-02T22:44:18.706Z,28.50
2022-08-02T22:46:50.202Z,28.40
2022-08-02T22:49:37.194Z,28.40
2022-08-02T22:51:48.184Z,28.30
2022-08-02T22:54:16.840Z,28.20
2022-08-02T22:56:45.438Z,28.20
2022-08-02T22:58:35.064Z,36.40
2022-08-02T22:58:37.235Z,35.80
2022-08-02T22:58:44.950Z,34.00
2022-08-02T22:59:00.085Z,32.50
2022-08-02T23:01:44.682Z,28.10
2022-08-02T23:04:13.559Z,28.10
2022-08-02T23:06:42.138Z,27.60
2022-08-02T23:09:10.856Z,27.60
2022-08-02T23:11:39.499Z,27.70
2022-08-02T23:14:08.225Z,27.70
2022-08-02T23:16:54.915Z,27.60
2022-08-02T23:19:41.310Z,27.70
2022-08-02T23:22:10.031Z,27.60
2022-08-02T23:24:38.611Z,27.60
2022-08-02T23:27:07.419Z,27.10
2022-08-02T23:29:36.135Z,27.00
2022-08-02T23:32:05.031Z,27.30
2022-08-02T23:34:35.450Z,27.40
2022-08-02T23:37:04.330Z,27.40
2022-08-02T23:39:33.505Z,27.30
2022-08-02T23:42:02.483Z,27.30
2022-08-02T23:44:31.422Z,26.90
2022-08-02T23:47:00.500Z,26.60
2022-08-02T23:49:29.324Z,25.90
2022-08-02T23:52:01.523Z,25.80
2022-08-02T23:54:28.672Z,25.90
2022-08-02T23:56:57.264Z,26.50
2022-08-02T23:59:26.103Z,26.70
